Time;durP1;ratioP1;P1;durP2;ratioP2;P2;SDS_P1;SDS_P2;PMS_P1;PMS_P2;Temp;Humidity;BMP_temperature;BMP_pressure;BME280_temperature;BME280_humidity;BME280_pressure;Samples;Min_cycle;Max_cycle;Signal;HPM_P1;HPM_P2
2023/09/30 00:02:22;;;;;;;12.77;4.30;;;11.20;99.90;;;;;;5094572;28;20506;-65
2023/09/30 00:04:49;;;;;;;12.38;4.95;;;11.10;99.90;;;;;;5094529;28;20483;-64
2023/09/30 00:07:16;;;;;;;15.48;4.97;;;11.10;99.90;;;;;;5092097;28;20056;-65
2023/09/30 00:09:43;;;;;;;14.20;4.82;;;11.10;99.90;;;;;;5112718;28;20433;-65
2023/09/30 00:12:10;;;;;;;13.35;4.22;;;11.20;99.90;;;;;;5093552;28;20044;-65
2023/09/30 00:14:38;;;;;;;16.67;4.80;;;11.20;99.90;;;;;;5093731;28;20040;-65
2023/09/30 00:17:05;;;;;;;18.90;4.72;;;11.20;99.90;;;;;;5094174;28;20051;-65
2023/09/30 00:19:33;;;;;;;16.48;4.25;;;11.20;99.90;;;;;;5094007;28;20058;-65
2023/09/30 00:22:00;;;;;;;13.48;4.25;;;11.20;99.90;;;;;;5093771;28;20047;-65
2023/09/30 00:24:28;;;;;;;19.17;5.65;;;11.20;99.90;;;;;;5094634;28;20487;-66
2023/09/30 00:26:56;;;;;;;13.48;5.03;;;11.20;99.90;;;;;;5094312;28;20052;-65
2023/09/30 00:29:23;;;;;;;14.27;4.60;;;11.20;99.90;;;;;;5093971;28;20542;-66
2023/09/30 00:31:51;;;;;;;19.35;4.90;;;11.20;99.90;;;;;;5094151;28;20491;-65
2023/09/30 00:34:18;;;;;;;17.17;5.30;;;11.20;99.90;;;;;;5093525;28;20051;-65
2023/09/30 00:36:45;;;;;;;15.55;4.90;;;11.20;99.90;;;;;;5094098;28;20059;-64
2023/09/30 00:39:12;;;;;;;10.48;4.35;;;11.20;99.90;;;;;;5094027;28;20046;-65
2023/09/30 00:41:40;;;;;;;15.00;4.90;;;11.20;99.90;;;;;;5093000;28;20048;-66
2023/09/30 00:44:07;;;;;;;23.27;5.13;;;11.20;99.90;;;;;;5094110;28;20043;-65
2023/09/30 00:46:37;;;;;;;10.50;3.92;;;11.10;99.90;;;;;;5094154;28;20058;-65
2023/09/30 00:49:05;;;;;;;14.18;4.63;;;11.10;99.90;;;;;;5093253;28;20123;-65
2023/09/30 00:51:34;;;;;;;14.45;4.75;;;11.20;99.90;;;;;;5094067;28;20453;-65
2023/09/30 00:54:01;;;;;;;15.18;5.32;;;11.10;99.90;;;;;;5093558;28;20055;-65
2023/09/30 00:56:30;;;;;;;10.52;5.13;;;11.20;99.90;;;;;;5089855;28;20067;-65
2023/09/30 00:58:57;;;;;;;19.50;5.43;;;11.10;99.90;;;;;;5090341;28;20048;-65
2023/09/30 01:01:25;;;;;;;12.80;4.63;;;11.10;99.90;;;;;;5090343;28;20059;-65
2023/09/30 01:03:52;;;;;;;15.68;5.10;;;11.10;99.90;;;;;;5090283;28;20044;-65
2023/09/30 01:06:21;;;;;;;10.57;4.65;;;11.20;99.90;;;;;;5091561;28;20044;-64
2023/09/30 01:08:48;;;;;;;12.98;4.05;;;11.20;99.90;;;;;;5090669;28;20044;-65
2023/09/30 01:11:15;;;;;;;14.02;4.88;;;11.20;99.90;;;;;;5090068;28;20093;-65
2023/09/30 01:13:44;;;;;;;15.20;5.43;;;11.20;99.90;;;;;;5091479;28;20067;-65
2023/09/30 01:16:11;;;;;;;12.65;4.78;;;11.20;99.90;;;;;;5090020;28;20093;-65
2023/09/30 01:18:40;;;;;;;13.55;5.10;;;11.20;99.90;;;;;;5089982;28;20052;-65
2023/09/30 01:21:08;;;;;;;12.73;4.53;;;11.30;99.90;;;;;;5090242;28;20090;-65
2023/09/30 01:23:36;;;;;;;15.98;5.25;;;11.30;99.90;;;;;;5085369;28;20040;-65
2023/09/30 01:26:05;;;;;;;12.77;5.05;;;11.30;99.90;;;;;;5089740;28;20067;-65
2023/09/30 01:28:32;;;;;;;13.65;4.75;;;11.30;99.90;;;;;;5090195;28;20044;-65
2023/09/30 01:30:59;;;;;;;13.82;4.72;;;11.30;99.90;;;;;;5090821;28;20044;-65
2023/09/30 01:33:26;;;;;;;13.77;4.70;;;11.30;99.90;;;;;;5091367;28;20052;-65
2023/09/30 01:35:53;;;;;;;13.55;4.32;;;11.40;99.90;;;;;;5090066;28;20552;-65
2023/09/30 01:38:20;;;;;;;12.15;5.18;;;11.40;99.90;;;;;;5089813;28;20052;-65
2023/09/30 01:40:48;;;;;;;15.75;5.03;;;11.40;99.90;;;;;;5090044;28;20048;-66
2023/09/30 01:43:15;;;;;;;12.43;4.47;;;11.40;99.90;;;;;;5089446;28;20064;-64
2023/09/30 01:45:44;;;;;;;12.95;4.40;;;11.40;99.90;;;;;;5087775;28;20101;-65
2023/09/30 01:48:11;;;;;;;10.82;4.43;;;11.40;99.90;;;;;;5089014;28;20049;-64
2023/09/30 01:50:38;;;;;;;9.45;4.05;;;11.40;99.90;;;;;;5090255;28;20048;-65
2023/09/30 01:53:06;;;;;;;15.77;4.68;;;11.40;99.90;;;;;;5089736;28;20291;-65
2023/09/30 01:55:33;;;;;;;12.55;5.07;;;11.40;99.90;;;;;;5093845;28;20052;-65
2023/09/30 01:58:01;;;;;;;16.60;4.85;;;11.40;99.90;;;;;;5093198;28;20048;-65
2023/09/30 02:00:29;;;;;;;12.02;4.25;;;11.40;99.90;;;;;;5092790;28;20047;-65
2023/09/30 02:02:56;;;;;;;12.90;4.47;;;11.40;99.90;;;;;;5091434;28;20109;-65
2023/09/30 02:05:23;;;;;;;11.95;4.38;;;11.40;99.90;;;;;;5093077;28;20048;-65
2023/09/30 02:07:51;;;;;;;11.15;4.32;;;11.40;99.90;;;;;;5092799;28;20553;-65
2023/09/30 02:10:19;;;;;;;14.23;4.60;;;11.40;99.90;;;;;;5093183;28;20102;-64
2023/09/30 02:12:46;;;;;;;9.30;3.95;;;11.50;99.90;;;;;;5092961;28;20060;-64
2023/09/30 02:15:16;;;;;;;13.88;4.05;;;11.40;99.90;;;;;;5093101;28;20048;-65
2023/09/30 02:17:45;;;;;;;13.30;4.05;;;11.50;99.90;;;;;;5093371;28;20040;-64
2023/09/30 02:20:15;;;;;;;14.00;3.90;;;11.40;99.90;;;;;;5092559;28;20093;-65
2023/09/30 02:22:44;;;;;;;15.00;4.90;;;11.40;99.90;;;;;;5093111;28;20047;-65
2023/09/30 02:25:12;;;;;;;12.27;4.88;;;11.40;99.90;;;;;;5092447;28;20040;-66
2023/09/30 02:27:41;;;;;;;16.27;5.13;;;11.40;99.90;;;;;;5092152;28;20078;-65
2023/09/30 02:30:11;;;;;;;12.00;5.05;;;11.40;99.90;;;;;;5092966;28;20126;-65
2023/09/30 02:32:40;;;;;;;13.20;4.77;;;11.50;99.90;;;;;;5093057;28;20052;-65
2023/09/30 02:35:10;;;;;;;17.58;5.15;;;11.50;99.90;;;;;;5089110;28;20352;-65
2023/09/30 02:37:38;;;;;;;17.50;5.63;;;11.50;99.90;;;;;;5090557;28;20040;-64
2023/09/30 02:40:09;;;;;;;11.05;4.90;;;11.50;99.90;;;;;;5092583;28;20059;-65
2023/09/30 02:42:36;;;;;;;11.32;4.55;;;11.60;99.90;;;;;;5092416;28;20051;-65
2023/09/30 02:45:03;;;;;;;10.38;4.70;;;11.60;99.90;;;;;;5092708;28;20093;-65
2023/09/30 02:47:31;;;;;;;13.43;4.82;;;11.60;99.90;;;;;;5092517;28;20048;-65
2023/09/30 02:49:59;;;;;;;10.57;5.28;;;11.60;99.90;;;;;;5092233;28;20109;-65
2023/09/30 02:52:27;;;;;;;9.82;5.20;;;11.60;99.90;;;;;;5092356;28;20060;-65
2023/09/30 02:54:53;;;;;;;10.55;4.20;;;11.60;99.90;;;;;;5092583;28;20407;-65
2023/09/30 02:57:21;;;;;;;9.00;4.35;;;11.60;99.90;;;;;;5091772;28;20047;-65
2023/09/30 02:59:48;;;;;;;11.82;4.20;;;11.60;99.90;;;;;;5093645;28;20031;-64
2023/09/30 03:02:18;;;;;;;15.02;4.53;;;11.60;99.90;;;;;;5092739;28;20051;-64
2023/09/30 03:04:46;;;;;;;13.68;4.22;;;11.70;99.90;;;;;;5091655;28;20044;-64
2023/09/30 03:07:15;;;;;;;10.13;3.97;;;11.70;99.90;;;;;;5090366;28;20138;-64
2023/09/30 03:09:42;;;;;;;12.43;5.88;;;11.70;99.90;;;;;;5091881;28;20075;-64
2023/09/30 03:12:09;;;;;;;13.05;4.10;;;11.70;99.90;;;;;;5092320;28;20072;-64
2023/09/30 03:14:36;;;;;;;20.42;4.57;;;11.80;99.90;;;;;;5093119;28;20075;-65
2023/09/30 03:17:03;;;;;;;16.38;4.40;;;11.70;99.90;;;;;;5091631;28;20059;-65
2023/09/30 03:19:30;;;;;;;14.48;4.60;;;11.70;99.90;;;;;;5087879;28;20040;-65
2023/09/30 03:21:57;;;;;;;13.48;4.93;;;11.60;99.90;;;;;;5092262;28;20418;-64
2023/09/30 03:24:26;;;;;;;9.10;4.25;;;11.60;99.90;;;;;;5091349;28;20052;-64
2023/09/30 03:26:54;;;;;;;14.55;4.90;;;11.60;99.90;;;;;;5091915;28;20044;-64
2023/09/30 03:29:21;;;;;;;12.40;3.72;;;11.60;99.90;;;;;;5091653;28;20487;-65
2023/09/30 03:31:48;;;;;;;10.07;3.95;;;11.60;99.90;;;;;;5091395;28;20055;-64
2023/09/30 03:34:16;;;;;;;15.70;4.95;;;11.60;99.90;;;;;;5091631;28;20070;-65
2023/09/30 03:36:44;;;;;;;11.90;3.75;;;11.60;99.90;;;;;;5092953;28;20093;-65
2023/09/30 03:39:14;;;;;;;13.77;4.25;;;11.50;99.90;;;;;;5092309;28;20495;-65
2023/09/30 03:41:43;;;;;;;14.18;4.68;;;11.60;99.90;;;;;;5091797;28;20075;-64
2023/09/30 03:44:10;;;;;;;14.25;4.68;;;11.50;99.90;;;;;;5091191;28;20040;-65
2023/09/30 03:46:37;;;;;;;9.90;4.43;;;11.60;99.90;;;;;;5091632;28;20051;-65
2023/09/30 03:49:04;;;;;;;14.00;4.00;;;11.60;99.90;;;;;;5091355;28;20051;-64
2023/09/30 03:51:31;;;;;;;11.90;4.20;;;11.50;99.90;;;;;;5090886;28;20048;-64
2023/09/30 03:53:58;;;;;;;11.02;3.92;;;11.50;99.90;;;;;;5091319;28;20051;-64
2023/09/30 03:56:25;;;;;;;11.85;3.70;;;11.50;99.90;;;;;;5091352;28;20055;-65
2023/09/30 03:58:53;;;;;;;10.75;4.28;;;11.50;99.90;;;;;;5091844;28;20048;-65
2023/09/30 04:01:20;;;;;;;10.90;3.72;;;11.50;99.90;;;;;;5091333;28;20056;-65
2023/09/30 04:03:47;;;;;;;12.27;4.05;;;11.40;99.90;;;;;;5091199;28;20090;-66
2023/09/30 04:06:14;;;;;;;11.10;4.22;;;11.40;99.90;;;;;;5090810;28;20408;-66
2023/09/30 04:08:43;;;;;;;21.38;4.75;;;11.40;99.90;;;;;;5091057;28;20059;-66
2023/09/30 04:11:16;;;;;;;8.77;4.00;;;11.40;99.90;;;;;;5092387;28;20068;-65
2023/09/30 04:13:43;;;;;;;13.40;4.03;;;11.40;99.90;;;;;;5090592;28;20052;-65
2023/09/30 04:16:11;;;;;;;8.75;3.92;;;11.50;99.90;;;;;;5091064;28;20048;-65
2023/09/30 04:18:40;;;;;;;14.73;4.68;;;11.40;99.90;;;;;;5091186;28;20048;-65
2023/09/30 04:21:08;;;;;;;16.27;4.55;;;11.40;99.90;;;;;;5090731;28;20073;-65
2023/09/30 04:23:36;;;;;;;14.23;3.88;;;11.40;99.90;;;;;;5091053;28;20089;-67
2023/09/30 04:26:03;;;;;;;11.45;4.60;;;11.40;99.90;;;;;;5091116;28;20122;-66
2023/09/30 04:28:30;;;;;;;10.05;4.55;;;11.40;99.90;;;;;;5091654;28;20046;-66
2023/09/30 04:30:58;;;;;;;13.40;4.53;;;11.40;99.90;;;;;;5090771;28;20158;-66
2023/09/30 04:33:26;;;;;;;15.00;4.45;;;11.40;99.90;;;;;;5087125;28;20048;-64
2023/09/30 04:35:53;;;;;;;13.73;4.38;;;11.40;99.90;;;;;;5090576;28;20044;-64
2023/09/30 04:38:20;;;;;;;17.40;4.72;;;11.40;99.90;;;;;;5090989;28;20446;-64
2023/09/30 04:40:51;;;;;;;14.98;4.40;;;11.40;99.90;;;;;;5090237;28;20757;-65
2023/09/30 04:43:18;;;;;;;11.75;4.85;;;11.40;99.90;;;;;;5090425;28;20052;-64
2023/09/30 04:45:46;;;;;;;14.30;4.53;;;11.40;99.90;;;;;;5090943;28;20044;-65
2023/09/30 04:48:13;;;;;;;12.65;4.97;;;11.40;99.90;;;;;;5090198;28;20059;-65
2023/09/30 04:50:42;;;;;;;10.95;4.97;;;11.40;99.90;;;;;;5090847;28;20048;-65
2023/09/30 04:53:09;;;;;;;14.85;5.35;;;11.40;99.90;;;;;;5086701;28;20097;-66
2023/09/30 04:55:37;;;;;;;15.93;5.72;;;11.40;99.90;;;;;;5089811;28;20549;-66
2023/09/30 04:58:05;;;;;;;9.68;4.28;;;11.40;99.90;;;;;;5111559;28;20059;-66
2023/09/30 05:00:32;;;;;;;15.35;5.53;;;11.30;99.90;;;;;;5112037;28;20422;-64
2023/09/30 05:02:59;;;;;;;12.70;4.53;;;11.30;99.90;;;;;;5093546;28;20047;-65
2023/09/30 05:05:26;;;;;;;13.43;5.80;;;11.30;99.90;;;;;;5093918;28;20089;-65
2023/09/30 05:07:54;;;;;;;13.60;5.15;;;11.30;99.90;;;;;;5094014;28;20043;-66
2023/09/30 05:10:22;;;;;;;15.88;5.78;;;11.30;99.90;;;;;;5088629;28;20051;-65
2023/09/30 05:12:49;;;;;;;15.05;5.82;;;11.30;99.90;;;;;;5111867;28;20040;-66
2023/09/30 05:15:17;;;;;;;14.82;6.10;;;11.30;99.90;;;;;;5093723;28;20039;-66
2023/09/30 05:17:44;;;;;;;16.83;5.90;;;11.30;99.90;;;;;;5092606;28;20105;-65
2023/09/30 05:20:12;;;;;;;22.88;6.15;;;11.30;99.90;;;;;;5093609;28;20052;-66
2023/09/30 05:22:40;;;;;;;14.80;6.15;;;11.20;99.90;;;;;;5092944;28;20100;-66
2023/09/30 05:25:09;;;;;;;19.83;6.15;;;11.20;99.90;;;;;;5093244;28;20491;-66
2023/09/30 05:27:36;;;;;;;17.15;6.45;;;11.20;99.90;;;;;;5109356;28;20434;-66
2023/09/30 05:30:03;;;;;;;14.00;5.95;;;11.20;99.90;;;;;;5096451;28;20503;-67
2023/09/30 05:32:30;;;;;;;13.75;5.72;;;11.10;99.90;;;;;;5095617;28;20051;-66
2023/09/30 05:34:57;;;;;;;16.95;6.38;;;11.10;99.90;;;;;;5115362;28;20085;-65
2023/09/30 05:37:26;;;;;;;19.63;6.65;;;11.10;99.90;;;;;;5096772;28;20047;-65
2023/09/30 05:39:53;;;;;;;13.27;5.95;;;11.10;99.90;;;;;;5097335;28;20047;-65
2023/09/30 05:42:22;;;;;;;12.57;5.97;;;11.10;99.90;;;;;;5115469;28;20418;-66
2023/09/30 05:44:49;;;;;;;19.40;7.30;;;11.10;99.90;;;;;;5114951;28;20079;-66
2023/09/30 05:47:16;;;;;;;19.73;7.53;;;11.10;99.90;;;;;;5115519;28;20051;-65
2023/09/30 05:49:43;;;;;;;16.40;6.97;;;11.10;99.90;;;;;;5097106;28;20131;-65
2023/09/30 05:52:10;;;;;;;19.08;7.88;;;11.10;99.90;;;;;;5096585;28;20384;-65
2023/09/30 05:54:38;;;;;;;23.35;8.10;;;11.10;99.90;;;;;;5096893;28;20040;-64
2023/09/30 05:57:05;;;;;;;19.73;7.25;;;11.10;99.90;;;;;;5096815;28;20077;-65
2023/09/30 05:59:33;;;;;;;15.25;7.50;;;11.10;99.90;;;;;;5096562;28;20399;-65
2023/09/30 06:02:00;;;;;;;15.40;6.78;;;11.10;99.90;;;;;;5097165;28;20373;-64
2023/09/30 06:04:27;;;;;;;12.98;7.22;;;11.10;99.90;;;;;;5096724;28;20051;-64
2023/09/30 06:06:54;;;;;;;21.38;7.68;;;11.20;99.90;;;;;;5089199;28;20048;-64
2023/09/30 06:09:25;;;;;;;17.15;6.93;;;11.30;99.90;;;;;;5091403;28;20139;-63
2023/09/30 06:11:52;;;;;;;15.95;7.07;;;11.50;99.90;;;;;;5091888;28;20051;-64
2023/09/30 06:14:18;;;;;;;22.30;8.93;;;11.60;99.90;;;;;;5090009;28;20051;-64
2023/09/30 06:16:47;;;;;;;17.77;7.43;;;11.80;99.90;;;;;;5091662;28;20051;-63
2023/09/30 06:19:14;;;;;;;18.90;7.78;;;11.80;99.90;;;;;;5093033;28;20100;-64
2023/09/30 06:21:42;;;;;;;18.73;6.75;;;12.00;99.90;;;;;;5093878;28;20081;-64
2023/09/30 06:24:09;;;;;;;11.15;6.80;;;12.20;99.90;;;;;;5093893;28;20543;-64
2023/09/30 06:26:36;;;;;;;12.63;7.03;;;12.20;99.90;;;;;;5092080;28;20042;-65
2023/09/30 06:29:03;;;;;;;15.52;5.90;;;12.20;99.90;;;;;;5093789;28;20146;-65
2023/09/30 06:31:30;;;;;;;12.40;5.70;;;12.30;99.90;;;;;;5095767;28;20410;-65
2023/09/30 06:34:00;;;;;;;17.83;7.30;;;12.50;99.90;;;;;;5095123;28;20047;-65
2023/09/30 06:36:27;;;;;;;17.70;6.65;;;12.50;99.90;;;;;;5094993;28;20036;-66
2023/09/30 06:38:54;;;;;;;12.75;5.63;;;12.70;99.90;;;;;;5095487;28;20047;-64
2023/09/30 06:41:20;;;;;;;12.52;7.03;;;12.70;99.90;;;;;;5112888;28;20556;-65
2023/09/30 06:43:48;;;;;;;14.27;6.20;;;12.70;99.90;;;;;;5095173;28;20043;-65
2023/09/30 06:46:16;;;;;;;12.95;6.55;;;12.80;99.90;;;;;;5091002;28;20048;-65
2023/09/30 06:48:43;;;;;;;12.88;7.05;;;12.80;99.90;;;;;;5094718;28;20047;-63
2023/09/30 06:51:15;;;;;;;14.55;7.00;;;12.90;99.90;;;;;;5113110;28;20398;-66
2023/09/30 06:53:42;;;;;;;15.20;6.60;;;12.90;99.90;;;;;;5095474;28;20514;-64
2023/09/30 06:56:09;;;;;;;15.18;6.28;;;13.00;99.90;;;;;;5093709;28;20108;-65
2023/09/30 06:58:36;;;;;;;14.52;7.22;;;13.10;99.90;;;;;;5095165;28;20062;-64
2023/09/30 07:01:03;;;;;;;16.25;7.35;;;13.30;99.90;;;;;;5094786;28;20441;-65
2023/09/30 07:03:32;;;;;;;14.48;7.32;;;13.40;99.90;;;;;;5093626;28;20048;-65
2023/09/30 07:06:00;;;;;;;15.50;6.88;;;13.60;99.90;;;;;;5089815;28;20093;-65
2023/09/30 07:08:30;;;;;;;15.07;5.97;;;13.90;99.90;;;;;;5112083;28;20591;-65
2023/09/30 07:10:57;;;;;;;9.40;5.80;;;14.40;99.90;;;;;;5113309;28;20578;-65
2023/09/30 07:13:24;;;;;;;15.32;6.00;;;14.90;99.90;;;;;;5112249;28;20171;-65
2023/09/30 07:15:51;;;;;;;12.80;5.57;;;15.30;99.90;;;;;;5112673;28;20056;-65
2023/09/30 07:18:18;;;;;;;11.10;5.15;;;15.60;99.90;;;;;;5094120;28;20535;-65
2023/09/30 07:20:45;;;;;;;13.82;6.05;;;15.90;99.90;;;;;;5094124;28;20591;-65
2023/09/30 07:23:13;;;;;;;13.15;5.75;;;15.80;99.90;;;;;;5094177;28;20051;-65
2023/09/30 07:25:42;;;;;;;15.18;5.38;;;15.90;99.90;;;;;;5107625;28;20044;-65
2023/09/30 07:28:11;;;;;;;8.50;5.25;;;15.90;99.90;;;;;;5094015;28;20055;-65
2023/09/30 07:30:39;;;;;;;11.48;5.47;;;15.90;99.90;;;;;;5093868;28;20054;-64
2023/09/30 07:33:06;;;;;;;11.90;5.32;;;15.90;99.90;;;;;;5094132;28;20048;-64
2023/09/30 07:35:34;;;;;;;8.35;5.00;;;16.00;99.90;;;;;;5092862;28;20127;-64
2023/09/30 07:38:01;;;;;;;10.90;5.30;;;16.10;99.90;;;;;;5111882;28;20044;-64
2023/09/30 07:40:28;;;;;;;11.32;5.28;;;16.30;99.90;;;;;;5092661;28;20055;-64
2023/09/30 07:42:57;;;;;;;11.27;5.80;;;16.70;99.90;;;;;;5093975;28;20105;-65
2023/09/30 07:45:24;;;;;;;9.80;5.70;;;17.10;99.90;;;;;;5093726;28;20039;-65
2023/09/30 07:47:52;;;;;;;11.50;5.40;;;17.80;99.90;;;;;;5092633;28;20052;-65
2023/09/30 07:50:18;;;;;;;11.10;5.13;;;18.30;99.90;;;;;;5091782;28;20055;-66
2023/09/30 07:52:45;;;;;;;13.80;5.90;;;18.80;99.90;;;;;;5088539;28;20052;-65
2023/09/30 07:55:12;;;;;;;9.73;5.00;;;19.20;99.90;;;;;;5109328;28;20380;-65
2023/09/30 07:57:42;;;;;;;9.85;5.35;;;19.50;99.90;;;;;;5084227;28;20059;-65
2023/09/30 08:00:15;;;;;;;11.10;4.85;;;20.10;99.90;;;;;;5110966;28;20071;-65
2023/09/30 08:02:42;;;;;;;7.40;4.65;;;20.40;99.90;;;;;;5091167;28;20407;-65
2023/09/30 08:05:10;;;;;;;11.05;4.80;;;20.80;99.90;;;;;;5091387;28;20044;-66
2023/09/30 08:07:38;;;;;;;9.00;5.40;;;20.80;99.90;;;;;;5093549;28;20132;-66
2023/09/30 08:10:06;;;;;;;10.98;4.65;;;21.20;99.90;;;;;;5093744;28;20043;-67
2023/09/30 08:12:32;;;;;;;10.82;4.40;;;21.40;99.90;;;;;;5088824;28;20048;-67
2023/09/30 08:14:59;;;;;;;9.95;5.03;;;21.70;99.90;;;;;;5091850;28;20491;-67
2023/09/30 08:17:27;;;;;;;9.02;3.97;;;21.80;99.90;;;;;;5111426;28;20043;-67
2023/09/30 08:19:54;;;;;;;8.98;4.53;;;22.30;99.90;;;;;;5093065;28;20392;-66
2023/09/30 08:22:25;;;;;;;10.02;4.50;;;22.50;99.90;;;;;;5092912;28;20066;-66
2023/09/30 08:24:52;;;;;;;7.20;4.57;;;22.60;99.90;;;;;;5092289;28;20352;-67
2023/09/30 08:27:19;;;;;;;10.27;5.03;;;22.90;99.90;;;;;;5089604;28;20044;-67
2023/09/30 08:29:47;;;;;;;8.65;4.05;;;22.80;99.90;;;;;;5089705;28;20056;-66
2023/09/30 08:32:13;;;;;;;10.43;4.45;;;23.00;99.90;;;;;;5108698;28;20088;-67
2023/09/30 08:34:42;;;;;;;7.57;3.85;;;22.90;99.90;;;;;;5092759;28;20399;-66
2023/09/30 08:37:09;;;;;;;9.85;3.85;;;23.00;99.90;;;;;;5090847;28;20048;-67
2023/09/30 08:39:39;;;;;;;7.43;3.75;;;23.50;99.90;;;;;;5090243;28;20052;-66
2023/09/30 08:42:11;;;;;;;7.25;3.90;;;23.90;99.90;;;;;;5107980;28;20040;-67
2023/09/30 08:44:39;;;;;;;8.90;3.92;;;24.10;99.90;;;;;;5091078;28;20047;-67
2023/09/30 08:47:07;;;;;;;9.93;3.92;;;24.10;99.90;;;;;;5089372;28;20102;-66
2023/09/30 08:49:36;;;;;;;8.88;3.63;;;24.40;99.90;;;;;;5111304;28;20058;-65
2023/09/30 08:52:06;;;;;;;8.35;3.78;;;24.20;99.90;;;;;;5110948;28;20144;-66
2023/09/30 08:54:33;;;;;;;8.10;3.72;;;24.40;99.90;;;;;;5092321;28;20050;-66
2023/09/30 08:57:03;;;;;;;7.20;3.88;;;24.40;99.90;;;;;;5092565;28;20055;-66
2023/09/30 08:59:30;;;;;;;9.20;3.05;;;24.80;99.90;;;;;;5092860;28;20058;-66
2023/09/30 09:01:58;;;;;;;8.63;3.25;;;24.80;99.90;;;;;;5091132;28;20079;-66
2023/09/30 09:04:25;;;;;;;7.80;3.42;;;24.70;99.90;;;;;;5093525;28;20048;-67
2023/09/30 09:06:54;;;;;;;7.45;3.45;;;25.10;99.90;;;;;;5096060;28;20039;-66
2023/09/30 09:09:23;;;;;;;7.18;3.20;;;25.30;99.90;;;;;;5093037;28;20507;-67
2023/09/30 09:11:50;;;;;;;7.97;3.33;;;25.50;99.90;;;;;;5096211;28;20093;-66
2023/09/30 09:14:17;;;;;;;9.95;3.55;;;25.80;99.90;;;;;;5113415;28;20070;-67
2023/09/30 09:16:54;;;;;;;5.70;2.88;;;25.70;99.90;;;;;;5109936;28;20372;-66
2023/09/30 09:19:22;;;;;;;8.52;3.33;;;25.70;99.60;;;;;;5101826;28;20043;-66
2023/09/30 09:21:57;;;;;;;7.88;2.70;;;25.80;99.90;;;;;;5096458;28;20128;-67
2023/09/30 09:24:35;;;;;;;7.85;2.95;;;26.10;98.40;;;;;;5088160;28;20134;-67
2023/09/30 09:27:09;;;;;;;9.00;2.80;;;26.60;98.10;;;;;;5091078;28;20044;-67
2023/09/30 09:29:37;;;;;;;6.30;2.63;;;27.00;97.70;;;;;;5092643;28;20048;-67
2023/09/30 09:32:13;;;;;;;8.13;2.65;;;26.80;97.60;;;;;;5092441;28;20063;-67
2023/09/30 09:34:40;;;;;;;9.15;2.78;;;26.60;96.30;;;;;;5093489;28;20039;-67
2023/09/30 09:37:16;;;;;;;8.50;2.80;;;26.20;97.90;;;;;;5093055;28;20551;-67
2023/09/30 09:39:52;;;;;;;7.57;3.08;;;27.00;97.40;;;;;;5092869;28;20151;-67
2023/09/30 09:42:29;;;;;;;7.63;2.72;;;27.20;96.30;;;;;;5091379;28;20686;-67
2023/09/30 09:44:59;;;;;;;8.20;3.00;;;27.70;95.90;;;;;;5090535;28;20147;-66
2023/09/30 09:47:29;;;;;;;7.55;3.10;;;27.90;96.00;;;;;;5093167;28;20055;-68
2023/09/30 09:49:58;;;;;;;11.48;3.35;;;27.80;95.80;;;;;;5109906;28;20138;-66
2023/09/30 09:52:26;;;;;;;6.07;2.75;;;28.00;95.40;;;;;;5093567;28;20128;-65
2023/09/30 09:54:55;;;;;;;9.02;3.10;;;27.80;95.40;;;;;;5091393;28;20614;-66
2023/09/30 09:57:26;;;;;;;5.30;2.80;;;27.80;95.40;;;;;;5089842;28;20055;-66
2023/09/30 09:59:55;;;;;;;8.00;2.42;;;28.50;94.80;;;;;;5092826;28;20043;-66
2023/09/30 10:02:27;;;;;;;8.40;2.75;;;28.60;94.50;;;;;;5094038;28;20104;-66
2023/09/30 10:04:56;;;;;;;12.25;2.63;;;28.50;94.00;;;;;;5092909;28;20138;-66
2023/09/30 10:07:28;;;;;;;7.05;2.40;;;28.20;94.00;;;;;;5092748;28;20125;-66
2023/09/30 10:09:59;;;;;;;7.22;2.20;;;27.80;93.90;;;;;;5093741;28;20047;-67
2023/09/30 10:12:27;;;;;;;8.85;2.38;;;27.30;94.00;;;;;;5111554;28;20407;-67
2023/09/30 10:14:54;;;;;;;7.00;2.67;;;26.60;94.20;;;;;;5088659;28;20044;-66
2023/09/30 10:17:21;;;;;;;11.32;2.50;;;26.70;94.60;;;;;;5093402;28;20049;-67
2023/09/30 10:20:07;;;;;;;6.15;2.50;;;26.10;94.60;;;;;;5109137;28;20046;-66
2023/09/30 10:22:36;;;;;;;5.65;2.03;;;26.00;94.70;;;;;;5111337;28;20451;-66
2023/09/30 10:25:34;;;;;;;6.85;1.98;;;25.20;94.80;;;;;;5093267;28;20047;-66
2023/09/30 10:28:02;;;;;;;6.97;2.10;;;25.40;95.40;;;;;;5093350;28;20047;-66
2023/09/30 10:30:29;;;;;;;4.40;2.03;;;25.00;96.10;;;;;;5093513;28;20047;-66
2023/09/30 10:33:15;;;;;;;6.53;2.63;;;25.60;96.20;;;;;;5092769;28;20407;-66
2023/09/30 10:35:48;;;;;;;5.77;2.20;;;25.40;95.60;;;;;;5093757;28;20075;-66
2023/09/30 10:38:37;;;;;;;9.13;2.13;;;25.10;95.90;;;;;;5093880;28;20047;-65
2023/09/30 10:41:07;;;;;;;8.50;2.67;;;25.00;96.00;;;;;;5093419;28;20051;-65
2023/09/30 10:43:35;;;;;;;;;;;25.00;96.40;;;;;;5094569;28;20100;-65
2023/09/30 10:46:05;;;;;;;7.82;2.47;;;25.70;95.80;;;;;;5094034;28;20015;-66
2023/09/30 10:48:40;;;;;;;7.20;2.00;;;26.00;94.90;;;;;;5093900;28;20052;-65
2023/09/30 10:51:15;;;;;;;7.45;2.63;;;26.00;94.10;;;;;;5093487;28;20499;-67
2023/09/30 10:53:45;;;;;;;5.00;1.58;;;26.90;93.60;;;;;;5093435;28;20051;-66
2023/09/30 10:56:13;;;;;;;5.75;2.00;;;27.50;92.90;;;;;;5071702;28;1085741;-66
2023/09/30 10:58:42;;;;;;;8.32;1.80;;;27.60;92.00;;;;;;5094818;28;20062;-66
2023/09/30 11:01:09;;;;;;;5.65;1.83;;;28.50;91.80;;;;;;5094737;28;20492;-66
2023/09/30 11:03:36;;;;;;;5.63;1.75;;;28.40;91.20;;;;;;5095343;28;20047;-66
2023/09/30 11:06:04;;;;;;;14.05;2.35;;;27.90;91.10;;;;;;5095410;28;20051;-66
2023/09/30 11:08:33;;;;;;;5.30;1.83;;;27.50;91.40;;;;;;5092642;28;20128;-66
2023/09/30 11:11:02;;;;;;;8.30;2.03;;;27.50;92.00;;;;;;5095151;28;20073;-65
2023/09/30 11:13:35;;;;;;;6.15;1.80;;;27.10;91.80;;;;;;5093669;28;20051;-65
2023/09/30 11:16:04;;;;;;;11.75;2.17;;;27.20;91.40;;;;;;5090539;28;20044;-66
2023/09/30 11:18:32;;;;;;;5.73;1.73;;;26.40;92.20;;;;;;5094150;28;20051;-66
2023/09/30 11:21:10;;;;;;;6.07;1.75;;;25.70;93.30;;;;;;5112757;28;20278;-66
2023/09/30 11:23:38;;;;;;;6.78;1.80;;;24.90;93.30;;;;;;5094070;28;20479;-66
2023/09/30 11:26:06;;;;;;;7.53;1.95;;;24.20;94.40;;;;;;5093845;28;20044;-66
2023/09/30 11:28:45;;;;;;;5.75;1.80;;;23.50;95.50;;;;;;5094065;28;20047;-66
2023/09/30 11:31:14;;;;;;;7.97;1.40;;;22.80;96.50;;;;;;5094390;28;20511;-66
2023/09/30 11:33:56;;;;;;;5.97;1.92;;;22.20;97.10;;;;;;5093228;28;20551;-66
2023/09/30 11:36:24;;;;;;;6.75;1.90;;;22.00;98.60;;;;;;5093792;28;20570;-66
2023/09/30 11:38:53;;;;;;;8.07;2.28;;;21.70;99.20;;;;;;5092659;28;20047;-66
2023/09/30 11:41:21;;;;;;;5.80;1.52;;;21.40;99.40;;;;;;5082300;28;20475;-65
2023/09/30 11:44:07;;;;;;;4.57;1.60;;;21.00;99.80;;;;;;5090129;28;20412;-65
2023/09/30 11:46:50;;;;;;;6.85;1.83;;;20.90;99.90;;;;;;5092218;28;20092;-65
2023/09/30 11:49:26;;;;;;;7.55;1.70;;;20.70;99.90;;;;;;5094122;28;20458;-65
2023/09/30 11:51:53;;;;;;;6.40;1.73;;;20.60;99.90;;;;;;5111294;28;20047;-66
2023/09/30 11:54:21;;;;;;;5.40;1.55;;;20.40;99.90;;;;;;5093991;28;20385;-66
2023/09/30 11:56:50;;;;;;;8.70;2.05;;;20.30;99.90;;;;;;5092645;28;20051;-66
2023/09/30 11:59:22;;;;;;;7.88;1.83;;;20.30;99.90;;;;;;5093395;28;20134;-65
2023/09/30 12:01:49;;;;;;;7.20;1.75;;;20.30;99.90;;;;;;5092771;28;20102;-65
2023/09/30 12:04:18;;;;;;;5.57;1.65;;;20.20;99.90;;;;;;5091364;28;20052;-65
2023/09/30 12:06:46;;;;;;;4.97;1.60;;;20.30;99.90;;;;;;5093331;28;20549;-65
2023/09/30 12:09:14;;;;;;;7.57;2.38;;;20.50;99.90;;;;;;5092606;28;20048;-67
2023/09/30 12:11:43;;;;;;;10.70;2.63;;;20.60;99.90;;;;;;5090446;28;20055;-66
2023/09/30 12:14:11;;;;;;;7.15;2.55;;;21.10;99.90;;;;;;5090618;28;20075;-65
2023/09/30 12:16:41;;;;;;;6.63;1.80;;;22.10;99.90;;;;;;5089613;28;20446;-65
2023/09/30 12:19:08;;;;;;;10.15;2.20;;;23.50;99.90;;;;;;5087747;28;20047;-65
2023/09/30 12:21:36;;;;;;;4.85;1.75;;;24.40;97.80;;;;;;5090754;28;20062;-65
2023/09/30 12:24:03;;;;;;;4.60;1.45;;;25.40;96.70;;;;;;5089487;28;20559;-65
2023/09/30 12:26:31;;;;;;;5.93;1.80;;;25.80;95.20;;;;;;5092016;28;20077;-65
2023/09/30 12:28:58;;;;;;;7.95;2.08;;;26.10;94.30;;;;;;5090778;28;20411;-65
2023/09/30 12:31:26;;;;;;;5.15;2.30;;;26.40;94.00;;;;;;5107693;28;20036;-66
2023/09/30 12:33:54;;;;;;;5.88;2.08;;;26.90;93.40;;;;;;5090770;28;20055;-65
2023/09/30 12:36:22;;;;;;;7.70;1.85;;;26.90;93.00;;;;;;5091422;28;20402;-66
2023/09/30 12:38:49;;;;;;;5.78;1.95;;;26.70;93.20;;;;;;5089151;28;20454;-66
2023/09/30 12:41:19;;;;;;;6.22;1.73;;;26.20;93.40;;;;;;5090755;28;20043;-66
2023/09/30 12:43:46;;;;;;;6.30;1.83;;;25.80;93.30;;;;;;5089597;28;20052;-66
2023/09/30 12:46:13;;;;;;;6.07;1.67;;;25.40;93.90;;;;;;5088557;28;20098;-65
2023/09/30 12:48:41;;;;;;;5.85;1.55;;;25.20;94.10;;;;;;5092859;28;20437;-66